sensor_id;sensor_type;location;lat;lon;timestamp;temperature;humidity
39585;DHT22;25278;53.674;10.014;2022-09-09T00:00:18;14.50;99.90
39585;DHT22;25278;53.674;10.014;2022-09-09T00:02:52;14.60;99.90
39585;DHT22;25278;53.674;10.014;2022-09-09T00:05:37;14.60;99.90
39585;DHT22;25278;53.674;10.014;2022-09-09T00:08:13;14.70;99.90
39585;DHT22;25278;53.674;10.014;2022-09-09T00:10:41;14.70;99.90
39585;DHT22;25278;53.674;10.014;2022-09-09T00:13:22;14.70;99.90
39585;DHT22;25278;53.674;10.014;2022-09-09T00:21:25;14.60;99.90
39585;DHT22;25278;53.674;10.014;2022-09-09T00:23:55;14.60;99.90
39585;DHT22;25278;53.674;10.014;2022-09-09T00:27:09;14.70;99.90
39585;DHT22;25278;53.674;10.014;2022-09-09T00:29:50;14.60;99.90
39585;DHT22;25278;53.674;10.014;2022-09-09T00:32:18;14.50;99.90
39585;DHT22;25278;53.674;10.014;2022-09-09T00:34:53;14.60;99.90
39585;DHT22;25278;53.674;10.014;2022-09-09T00:37:22;14.60;99.90
39585;DHT22;25278;53.674;10.014;2022-09-09T00:39:51;14.50;99.90
39585;DHT22;25278;53.674;10.014;2022-09-09T00:42:51;14.60;99.90
39585;DHT22;25278;53.674;10.014;2022-09-09T00:45:53;14.60;99.90
39585;DHT22;25278;53.674;10.014;2022-09-09T00:48:24;14.60;99.90
39585;DHT22;25278;53.674;10.014;2022-09-09T00:50:57;14.60;99.90
39585;DHT22;25278;53.674;10.014;2022-09-09T00:56:20;14.60;99.90
39585;DHT22;25278;53.674;10.014;2022-09-09T01:01:50;14.70;99.90
39585;DHT22;25278;53.674;10.014;2022-09-09T01:04:21;14.70;99.90
39585;DHT22;25278;53.674;10.014;2022-09-09T01:06:55;14.80;99.90
39585;DHT22;25278;53.674;10.014;2022-09-09T01:09:28;14.70;99.90
39585;DHT22;25278;53.674;10.014;2022-09-09T01:14:49;14.70;99.90
39585;DHT22;25278;53.674;10.014;2022-09-09T01:17:21;14.70;99.90
39585;DHT22;25278;53.674;10.014;2022-09-09T01:22:34;14.70;99.90
39585;DHT22;25278;53.674;10.014;2022-09-09T01:25:22;14.70;99.90
39585;DHT22;25278;53.674;10.014;2022-09-09T01:27:59;14.70;99.90
39585;DHT22;25278;53.674;10.014;2022-09-09T01:30:26;14.80;99.90
39585;DHT22;25278;53.674;10.014;2022-09-09T01:32:57;14.80;99.90
39585;DHT22;25278;53.674;10.014;2022-09-09T01:38:03;14.80;99.90
39585;DHT22;25278;53.674;10.014;2022-09-09T01:40:29;14.80;99.90
39585;DHT22;25278;53.674;10.014;2022-09-09T01:42:55;14.80;99.90
39585;DHT22;25278;53.674;10.014;2022-09-09T01:45:21;14.80;99.90
39585;DHT22;25278;53.674;10.014;2022-09-09T01:47:47;14.80;99.90
39585;DHT22;25278;53.674;10.014;2022-09-09T01:50:15;14.70;99.90
39585;DHT22;25278;53.674;10.014;2022-09-09T01:52:42;14.70;99.90
39585;DHT22;25278;53.674;10.014;2022-09-09T01:55:09;14.70;99.90
39585;DHT22;25278;53.674;10.014;2022-09-09T01:58:22;14.80;99.90
39585;DHT22;25278;53.674;10.014;2022-09-09T02:00:52;14.80;99.90
39585;DHT22;25278;53.674;10.014;2022-09-09T02:03:28;14.80;99.90
39585;DHT22;25278;53.674;10.014;2022-09-09T02:11:08;14.80;99.90
39585;DHT22;25278;53.674;10.014;2022-09-09T02:13:38;14.80;99.90
39585;DHT22;25278;53.674;10.014;2022-09-09T02:16:08;14.80;99.90
39585;DHT22;25278;53.674;10.014;2022-09-09T02:18:55;14.70;99.90
39585;DHT22;25278;53.674;10.014;2022-09-09T02:21:23;14.70;99.90
39585;DHT22;25278;53.674;10.014;2022-09-09T02:23:50;14.70;99.90
39585;DHT22;25278;53.674;10.014;2022-09-09T02:26:17;14.80;99.90
39585;DHT22;25278;53.674;10.014;2022-09-09T02:28:48;14.70;99.90
39585;DHT22;25278;53.674;10.014;2022-09-09T02:31:18;14.70;99.90
39585;DHT22;25278;53.674;10.014;2022-09-09T02:33:50;14.70;99.90
39585;DHT22;25278;53.674;10.014;2022-09-09T02:36:18;14.70;99.90
39585;DHT22;25278;53.674;10.014;2022-09-09T02:38:47;14.70;99.90
39585;DHT22;25278;53.674;10.014;2022-09-09T02:41:18;14.70;99.90
39585;DHT22;25278;53.674;10.014;2022-09-09T02:43:45;14.60;99.90
39585;DHT22;25278;53.674;10.014;2022-09-09T02:49:09;14.70;99.90
39585;DHT22;25278;53.674;10.014;2022-09-09T02:51:52;14.70;99.90
39585;DHT22;25278;53.674;10.014;2022-09-09T02:56:54;14.70;99.90
39585;DHT22;25278;53.674;10.014;2022-09-09T02:59:21;14.60;99.90
39585;DHT22;25278;53.674;10.014;2022-09-09T03:01:48;14.60;99.90
39585;DHT22;25278;53.674;10.014;2022-09-09T03:04:13;14.60;99.90
39585;DHT22;25278;53.674;10.014;2022-09-09T03:06:39;14.60;99.90
39585;DHT22;25278;53.674;10.014;2022-09-09T03:09:05;14.60;99.90
39585;DHT22;25278;53.674;10.014;2022-09-09T03:11:31;14.60;99.90
39585;DHT22;25278;53.674;10.014;2022-09-09T03:13:56;14.60;99.90
39585;DHT22;25278;53.674;10.014;2022-09-09T03:16:23;14.60;99.90
39585;DHT22;25278;53.674;10.014;2022-09-09T03:18:48;14.60;99.90
39585;DHT22;25278;53.674;10.014;2022-09-09T03:21:14;14.50;99.90
39585;DHT22;25278;53.674;10.014;2022-09-09T03:23:40;14.50;99.90
39585;DHT22;25278;53.674;10.014;2022-09-09T03:26:05;14.50;99.90
39585;DHT22;25278;53.674;10.014;2022-09-09T03:28:31;14.50;99.90
39585;DHT22;25278;53.674;10.014;2022-09-09T03:31:01;14.60;99.90
39585;DHT22;25278;53.674;10.014;2022-09-09T03:33:27;14.50;99.90
39585;DHT22;25278;53.674;10.014;2022-09-09T03:35:53;14.40;99.90
39585;DHT22;25278;53.674;10.014;2022-09-09T03:38:22;14.40;99.90
39585;DHT22;25278;53.674;10.014;2022-09-09T03:40:52;14.50;99.90
39585;DHT22;25278;53.674;10.014;2022-09-09T03:43:23;14.50;99.90
39585;DHT22;25278;53.674;10.014;2022-09-09T03:45:49;14.50;99.90
39585;DHT22;25278;53.674;10.014;2022-09-09T03:48:16;14.40;99.90
39585;DHT22;25278;53.674;10.014;2022-09-09T03:50:46;14.50;99.90
39585;DHT22;25278;53.674;10.014;2022-09-09T03:53:11;14.40;99.90
39585;DHT22;25278;53.674;10.014;2022-09-09T03:55:37;14.40;99.90
39585;DHT22;25278;53.674;10.014;2022-09-09T03:58:02;14.30;99.90
39585;DHT22;25278;53.674;10.014;2022-09-09T04:00:29;14.40;99.90
39585;DHT22;25278;53.674;10.014;2022-09-09T04:02:55;14.30;99.90
39585;DHT22;25278;53.674;10.014;2022-09-09T04:05:22;14.30;99.90
39585;DHT22;25278;53.674;10.014;2022-09-09T04:07:48;14.30;99.90
39585;DHT22;25278;53.674;10.014;2022-09-09T04:10:14;14.20;99.90
39585;DHT22;25278;53.674;10.014;2022-09-09T04:12:41;14.20;99.90
39585;DHT22;25278;53.674;10.014;2022-09-09T04:15:06;14.20;99.90
39585;DHT22;25278;53.674;10.014;2022-09-09T04:17:32;14.20;99.90
39585;DHT22;25278;53.674;10.014;2022-09-09T04:19:58;14.10;99.90
39585;DHT22;25278;53.674;10.014;2022-09-09T04:22:23;14.00;99.90
39585;DHT22;25278;53.674;10.014;2022-09-09T04:24:49;14.10;99.90
39585;DHT22;25278;53.674;10.014;2022-09-09T04:27:14;14.10;99.90
39585;DHT22;25278;53.674;10.014;2022-09-09T04:29:40;14.20;99.90
39585;DHT22;25278;53.674;10.014;2022-09-09T04:32:05;14.20;99.90
39585;DHT22;25278;53.674;10.014;2022-09-09T04:34:31;14.20;99.90
39585;DHT22;25278;53.674;10.014;2022-09-09T04:36:56;14.20;99.90
39585;DHT22;25278;53.674;10.014;2022-09-09T04:39:22;14.20;99.90
39585;DHT22;25278;53.674;10.014;2022-09-09T04:41:48;14.20;99.90
39585;DHT22;25278;53.674;10.014;2022-09-09T04:44:14;14.10;99.90
39585;DHT22;25278;53.674;10.014;2022-09-09T04:49:08;14.20;99.90
39585;DHT22;25278;53.674;10.014;2022-09-09T04:51:34;14.30;99.90
39585;DHT22;25278;53.674;10.014;2022-09-09T04:53:59;14.20;99.90
39585;DHT22;25278;53.674;10.014;2022-09-09T04:56:25;14.20;99.90
39585;DHT22;25278;53.674;10.014;2022-09-09T04:58:53;14.10;99.90
39585;DHT22;25278;53.674;10.014;2022-09-09T05:01:21;14.20;99.90
39585;DHT22;25278;53.674;10.014;2022-09-09T05:03:47;14.20;99.90
39585;DHT22;25278;53.674;10.014;2022-09-09T05:06:18;14.20;99.90
39585;DHT22;25278;53.674;10.014;2022-09-09T05:08:44;14.30;99.90
39585;DHT22;25278;53.674;10.014;2022-09-09T05:11:14;14.30;99.90
39585;DHT22;25278;53.674;10.014;2022-09-09T05:13:41;14.30;99.90
39585;DHT22;25278;53.674;10.014;2022-09-09T05:16:07;14.20;99.90
39585;DHT22;25278;53.674;10.014;2022-09-09T05:18:32;14.20;99.90
39585;DHT22;25278;53.674;10.014;2022-09-09T05:21:01;14.20;99.90
39585;DHT22;25278;53.674;10.014;2022-09-09T05:23:26;14.10;99.90
39585;DHT22;25278;53.674;10.014;2022-09-09T05:25:56;14.10;99.90
39585;DHT22;25278;53.674;10.014;2022-09-09T05:28:23;14.10;99.90
39585;DHT22;25278;53.674;10.014;2022-09-09T05:31:10;14.10;99.90
39585;DHT22;25278;53.674;10.014;2022-09-09T05:33:41;14.00;99.90
39585;DHT22;25278;53.674;10.014;2022-09-09T05:36:13;14.10;99.90
39585;DHT22;25278;53.674;10.014;2022-09-09T05:38:39;14.10;99.90
39585;DHT22;25278;53.674;10.014;2022-09-09T05:41:06;13.90;99.90
39585;DHT22;25278;53.674;10.014;2022-09-09T05:43:32;13.90;99.90
39585;DHT22;25278;53.674;10.014;2022-09-09T05:46:06;13.90;99.90
39585;DHT22;25278;53.674;10.014;2022-09-09T05:48:41;13.90;99.90
39585;DHT22;25278;53.674;10.014;2022-09-09T05:51:10;14.00;99.90
39585;DHT22;25278;53.674;10.014;2022-09-09T05:53:41;14.00;99.90
39585;DHT22;25278;53.674;10.014;2022-09-09T05:56:15;13.90;99.90
39585;DHT22;25278;53.674;10.014;2022-09-09T05:58:41;13.90;99.90
39585;DHT22;25278;53.674;10.014;2022-09-09T06:01:17;14.10;99.90
39585;DHT22;25278;53.674;10.014;2022-09-09T06:03:44;14.10;99.90
39585;DHT22;25278;53.674;10.014;2022-09-09T06:06:12;14.10;99.90
39585;DHT22;25278;53.674;10.014;2022-09-09T06:08:40;14.20;99.90
39585;DHT22;25278;53.674;10.014;2022-09-09T06:11:08;14.30;99.90
39585;DHT22;25278;53.674;10.014;2022-09-09T06:13:34;14.30;99.90
39585;DHT22;25278;53.674;10.014;2022-09-09T06:16:00;14.40;99.90
39585;DHT22;25278;53.674;10.014;2022-09-09T06:18:26;14.60;99.90
39585;DHT22;25278;53.674;10.014;2022-09-09T06:21:03;14.60;99.90
39585;DHT22;25278;53.674;10.014;2022-09-09T06:23:30;14.50;99.90
39585;DHT22;25278;53.674;10.014;2022-09-09T06:26:09;14.60;99.90
39585;DHT22;25278;53.674;10.014;2022-09-09T06:28:36;14.70;99.90
39585;DHT22;25278;53.674;10.014;2022-09-09T06:31:04;14.80;99.90
39585;DHT22;25278;53.674;10.014;2022-09-09T06:33:37;14.80;99.90
39585;DHT22;25278;53.674;10.014;2022-09-09T06:36:07;14.90;99.90
39585;DHT22;25278;53.674;10.014;2022-09-09T06:38:35;14.80;99.90
39585;DHT22;25278;53.674;10.014;2022-09-09T06:41:00;15.00;99.90
39585;DHT22;25278;53.674;10.014;2022-09-09T06:43:27;15.10;99.90
39585;DHT22;25278;53.674;10.014;2022-09-09T06:46:13;15.20;99.90
39585;DHT22;25278;53.674;10.014;2022-09-09T06:48:40;15.20;99.90
39585;DHT22;25278;53.674;10.014;2022-09-09T06:51:15;15.20;99.90
39585;DHT22;25278;53.674;10.014;2022-09-09T06:53:42;15.30;99.90
39585;DHT22;25278;53.674;10.014;2022-09-09T06:58:35;15.40;99.90
39585;DHT22;25278;53.674;10.014;2022-09-09T07:23:03;15.70;99.90
39585;DHT22;25278;53.674;10.014;2022-09-09T07:25:29;16.90;99.90
39585;DHT22;25278;53.674;10.014;2022-09-09T07:27:56;17.00;99.90
39585;DHT22;25278;53.674;10.014;2022-09-09T07:30:21;17.10;99.90
39585;DHT22;25278;53.674;10.014;2022-09-09T07:32:47;17.10;99.90
39585;DHT22;25278;53.674;10.014;2022-09-09T07:35:12;17.20;99.90
39585;DHT22;25278;53.674;10.014;2022-09-09T08:11:55;17.40;99.90
39585;DHT22;25278;53.674;10.014;2022-09-09T08:14:22;18.30;99.90
39585;DHT22;25278;53.674;10.014;2022-09-09T08:16:49;18.00;99.90
39585;DHT22;25278;53.674;10.014;2022-09-09T08:19:15;18.00;99.90
39585;DHT22;25278;53.674;10.014;2022-09-09T08:21:41;17.80;99.90
39585;DHT22;25278;53.674;10.014;2022-09-09T08:24:08;17.70;99.90
39585;DHT22;25278;53.674;10.014;2022-09-09T08:26:38;17.60;99.90
39585;DHT22;25278;53.674;10.014;2022-09-09T08:29:06;17.70;99.90
39585;DHT22;25278;53.674;10.014;2022-09-09T08:31:37;18.00;99.90
39585;DHT22;25278;53.674;10.014;2022-09-09T08:34:03;18.10;99.90
39585;DHT22;25278;53.674;10.014;2022-09-09T08:36:40;18.10;99.90
39585;DHT22;25278;53.674;10.014;2022-09-09T08:39:08;18.20;99.90
39585;DHT22;25278;53.674;10.014;2022-09-09T08:56:16;18.60;99.90
39585;DHT22;25278;53.674;10.014;2022-09-09T08:58:47;18.80;99.90
39585;DHT22;25278;53.674;10.014;2022-09-09T09:01:41;19.00;99.90
39585;DHT22;25278;53.674;10.014;2022-09-09T09:12:28;19.20;99.90
39585;DHT22;25278;53.674;10.014;2022-09-09T09:14:55;19.20;99.90
39585;DHT22;25278;53.674;10.014;2022-09-09T09:17:25;19.30;99.90
39585;DHT22;25278;53.674;10.014;2022-09-09T09:19:53;19.30;99.90
39585;DHT22;25278;53.674;10.014;2022-09-09T09:22:26;19.30;99.90
39585;DHT22;25278;53.674;10.014;2022-09-09T09:42:19;19.40;99.90
39585;DHT22;25278;53.674;10.014;2022-09-09T09:44:45;20.50;99.90
39585;DHT22;25278;53.674;10.014;2022-09-09T09:47:13;20.70;99.90
39585;DHT22;25278;53.674;10.014;2022-09-09T09:49:51;20.70;99.90
39585;DHT22;25278;53.674;10.014;2022-09-09T09:52:22;20.90;99.90
39585;DHT22;25278;53.674;10.014;2022-09-09T09:54:48;20.70;99.90
39585;DHT22;25278;53.674;10.014;2022-09-09T09:57:16;20.80;99.90
39585;DHT22;25278;53.674;10.014;2022-09-09T09:59:42;20.90;99.90
39585;DHT22;25278;53.674;10.014;2022-09-09T10:13:01;20.90;99.90
39585;DHT22;25278;53.674;10.014;2022-09-09T10:15:53;23.30;99.90
39585;DHT22;25278;53.674;10.014;2022-09-09T10:21:42;23.40;99.90
39585;DHT22;25278;53.674;10.014;2022-09-09T10:32:33;24.70;99.90
39585;DHT22;25278;53.674;10.014;2022-09-09T10:35:02;23.70;99.90
39585;DHT22;25278;53.674;10.014;2022-09-09T10:37:40;23.60;99.90
39585;DHT22;25278;53.674;10.014;2022-09-09T10:43:01;23.00;99.90
39585;DHT22;25278;53.674;10.014;2022-09-09T10:48:36;22.60;99.90
39585;DHT22;25278;53.674;10.014;2022-09-09T10:51:19;22.90;99.90
39585;DHT22;25278;53.674;10.014;2022-09-09T10:54:13;23.20;99.90
39585;DHT22;25278;53.674;10.014;2022-09-09T10:56:43;23.40;99.90
39585;DHT22;25278;53.674;10.014;2022-09-09T10:59:18;23.50;99.90
39585;DHT22;25278;53.674;10.014;2022-09-09T11:01:51;23.50;99.90
39585;DHT22;25278;53.674;10.014;2022-09-09T11:04:25;23.90;99.90
39585;DHT22;25278;53.674;10.014;2022-09-09T11:06:55;24.30;99.90
39585;DHT22;25278;53.674;10.014;2022-09-09T11:09:25;24.20;99.90
39585;DHT22;25278;53.674;10.014;2022-09-09T11:11:53;24.40;99.90
39585;DHT22;25278;53.674;10.014;2022-09-09T11:14:39;24.40;99.90
39585;DHT22;25278;53.674;10.014;2022-09-09T11:17:08;24.40;99.90
39585;DHT22;25278;53.674;10.014;2022-09-09T11:19:39;24.70;99.90
39585;DHT22;25278;53.674;10.014;2022-09-09T11:32:34;22.80;99.90
39585;DHT22;25278;53.674;10.014;2022-09-09T11:40:35;23.00;99.90
39585;DHT22;25278;53.674;10.014;2022-09-09T11:43:12;22.80;99.90
39585;DHT22;25278;53.674;10.014;2022-09-09T11:45:41;22.70;99.90
39585;DHT22;25278;53.674;10.014;2022-09-09T11:48:31;22.90;99.90
39585;DHT22;25278;53.674;10.014;2022-09-09T11:50:59;23.20;99.90
39585;DHT22;25278;53.674;10.014;2022-09-09T11:53:25;23.30;99.90
39585;DHT22;25278;53.674;10.014;2022-09-09T11:58:42;23.70;99.90
39585;DHT22;25278;53.674;10.014;2022-09-09T12:01:29;23.90;99.90
39585;DHT22;25278;53.674;10.014;2022-09-09T12:04:05;23.90;99.90
39585;DHT22;25278;53.674;10.014;2022-09-09T12:06:33;23.80;99.90
39585;DHT22;25278;53.674;10.014;2022-09-09T12:09:16;23.90;99.90
39585;DHT22;25278;53.674;10.014;2022-09-09T12:16:46;24.80;99.90
39585;DHT22;25278;53.674;10.014;2022-09-09T12:24:53;27.20;99.90
39585;DHT22;25278;53.674;10.014;2022-09-09T12:27:28;29.70;99.90
39585;DHT22;25278;53.674;10.014;2022-09-09T12:30:08;28.70;99.90
39585;DHT22;25278;53.674;10.014;2022-09-09T12:32:36;27.20;99.90
39585;DHT22;25278;53.674;10.014;2022-09-09T12:40:23;25.30;99.90
39585;DHT22;25278;53.674;10.014;2022-09-09T12:42:50;23.50;99.90
39585;DHT22;25278;53.674;10.014;2022-09-09T12:45:24;23.20;99.90
39585;DHT22;25278;53.674;10.014;2022-09-09T12:47:55;22.80;99.90
39585;DHT22;25278;53.674;10.014;2022-09-09T12:50:30;22.60;99.90
39585;DHT22;25278;53.674;10.014;2022-09-09T12:52:59;22.40;99.90
39585;DHT22;25278;53.674;10.014;2022-09-09T12:55:37;22.30;99.90
39585;DHT22;25278;53.674;10.014;2022-09-09T12:58:04;22.40;99.90
39585;DHT22;25278;53.674;10.014;2022-09-09T13:00:32;22.20;99.90
39585;DHT22;25278;53.674;10.014;2022-09-09T13:03:00;22.00;99.90
39585;DHT22;25278;53.674;10.014;2022-09-09T13:05:35;21.90;99.90
39585;DHT22;25278;53.674;10.014;2022-09-09T13:08:07;21.80;99.90
39585;DHT22;25278;53.674;10.014;2022-09-09T13:13:28;21.50;99.90
39585;DHT22;25278;53.674;10.014;2022-09-09T13:15:59;21.20;99.90
39585;DHT22;25278;53.674;10.014;2022-09-09T13:18:34;20.90;99.90
39585;DHT22;25278;53.674;10.014;2022-09-09T13:21:01;20.70;99.90
39585;DHT22;25278;53.674;10.014;2022-09-09T13:23:30;20.30;99.90
39585;DHT22;25278;53.674;10.014;2022-09-09T13:25:58;19.90;99.90
39585;DHT22;25278;53.674;10.014;2022-09-09T13:28:27;19.80;99.90
39585;DHT22;25278;53.674;10.014;2022-09-09T13:31:04;19.60;99.90
39585;DHT22;25278;53.674;10.014;2022-09-09T13:33:40;19.50;99.90
39585;DHT22;25278;53.674;10.014;2022-09-09T13:36:10;19.30;99.90
39585;DHT22;25278;53.674;10.014;2022-09-09T13:38:57;19.10;99.90
39585;DHT22;25278;53.674;10.014;2022-09-09T13:41:36;19.00;99.90
39585;DHT22;25278;53.674;10.014;2022-09-09T13:44:02;18.60;99.90
39585;DHT22;25278;53.674;10.014;2022-09-09T13:46:40;18.40;99.90
39585;DHT22;25278;53.674;10.014;2022-09-09T13:51:40;18.10;99.90
39585;DHT22;25278;53.674;10.014;2022-09-09T13:59:03;17.90;99.90
39585;DHT22;25278;53.674;10.014;2022-09-09T14:01:29;17.20;99.90
39585;DHT22;25278;53.674;10.014;2022-09-09T14:03:55;17.10;99.90
39585;DHT22;25278;53.674;10.014;2022-09-09T14:06:21;17.10;99.90
39585;DHT22;25278;53.674;10.014;2022-09-09T14:08:50;17.10;99.90
39585;DHT22;25278;53.674;10.014;2022-09-09T14:11:16;17.10;99.90
39585;DHT22;25278;53.674;10.014;2022-09-09T14:13:42;17.10;99.90
39585;DHT22;25278;53.674;10.014;2022-09-09T14:16:07;17.20;99.90
39585;DHT22;25278;53.674;10.014;2022-09-09T14:18:33;17.30;99.90
39585;DHT22;25278;53.674;10.014;2022-09-09T14:20:59;17.30;99.90
39585;DHT22;25278;53.674;10.014;2022-09-09T14:23:25;17.30;99.90
39585;DHT22;25278;53.674;10.014;2022-09-09T14:25:51;17.40;99.90
39585;DHT22;25278;53.674;10.014;2022-09-09T14:28:17;17.30;99.90
39585;DHT22;25278;53.674;10.014;2022-09-09T14:30:43;17.30;99.90
39585;DHT22;25278;53.674;10.014;2022-09-09T14:33:14;17.30;99.90
39585;DHT22;25278;53.674;10.014;2022-09-09T14:35:40;17.30;99.90
39585;DHT22;25278;53.674;10.014;2022-09-09T14:38:07;17.30;99.90
39585;DHT22;25278;53.674;10.014;2022-09-09T14:40:35;17.20;99.90
39585;DHT22;25278;53.674;10.014;2022-09-09T14:43:01;17.20;99.90
39585;DHT22;25278;53.674;10.014;2022-09-09T14:45:27;17.30;99.90
39585;DHT22;25278;53.674;10.014;2022-09-09T14:47:53;17.30;99.90
39585;DHT22;25278;53.674;10.014;2022-09-09T14:50:20;17.30;99.90
39585;DHT22;25278;53.674;10.014;2022-09-09T14:52:46;17.30;99.90
39585;DHT22;25278;53.674;10.014;2022-09-09T14:55:12;17.30;99.90
39585;DHT22;25278;53.674;10.014;2022-09-09T14:57:38;17.40;99.90
39585;DHT22;25278;53.674;10.014;2022-09-09T15:00:05;17.40;99.90
39585;DHT22;25278;53.674;10.014;2022-09-09T15:02:31;17.40;99.90
39585;DHT22;25278;53.674;10.014;2022-09-09T15:04:57;17.40;99.90
39585;DHT22;25278;53.674;10.014;2022-09-09T15:07:23;17.40;99.90
39585;DHT22;25278;53.674;10.014;2022-09-09T15:09:49;17.40;99.90
39585;DHT22;25278;53.674;10.014;2022-09-09T15:12:15;17.50;99.90
39585;DHT22;25278;53.674;10.014;2022-09-09T15:14:44;17.50;99.90
39585;DHT22;25278;53.674;10.014;2022-09-09T15:17:09;17.50;99.90
39585;DHT22;25278;53.674;10.014;2022-09-09T15:19:35;17.50;99.90
39585;DHT22;25278;53.674;10.014;2022-09-09T15:22:02;17.60;99.90
39585;DHT22;25278;53.674;10.014;2022-09-09T15:24:28;17.50;99.90
39585;DHT22;25278;53.674;10.014;2022-09-09T15:26:53;17.50;99.90
39585;DHT22;25278;53.674;10.014;2022-09-09T15:29:19;17.50;99.90
39585;DHT22;25278;53.674;10.014;2022-09-09T15:31:45;17.50;99.90
39585;DHT22;25278;53.674;10.014;2022-09-09T15:34:11;17.50;99.90
39585;DHT22;25278;53.674;10.014;2022-09-09T15:36:45;17.50;99.90
39585;DHT22;25278;53.674;10.014;2022-09-09T15:39:16;17.60;99.90
39585;DHT22;25278;53.674;10.014;2022-09-09T15:41:43;17.80;99.90
39585;DHT22;25278;53.674;10.014;2022-09-09T15:44:09;17.90;99.90
39585;DHT22;25278;53.674;10.014;2022-09-09T15:46:58;18.10;99.90
39585;DHT22;25278;53.674;10.014;2022-09-09T15:49:25;18.40;99.90
39585;DHT22;25278;53.674;10.014;2022-09-09T16:04:18;18.70;99.90
39585;DHT22;25278;53.674;10.014;2022-09-09T16:06:52;20.40;99.90
39585;DHT22;25278;53.674;10.014;2022-09-09T16:09:19;20.50;99.90
39585;DHT22;25278;53.674;10.014;2022-09-09T16:11:45;20.50;99.90
39585;DHT22;25278;53.674;10.014;2022-09-09T16:14:12;20.60;99.90
39585;DHT22;25278;53.674;10.014;2022-09-09T16:16:38;20.60;99.90
39585;DHT22;25278;53.674;10.014;2022-09-09T16:19:06;21.20;99.90
39585;DHT22;25278;53.674;10.014;2022-09-09T16:21:37;22.70;99.90
39585;DHT22;25278;53.674;10.014;2022-09-09T16:24:04;24.30;99.90
39585;DHT22;25278;53.674;10.014;2022-09-09T16:26:31;25.90;99.90
39585;DHT22;25278;53.674;10.014;2022-09-09T16:28:57;27.30;99.90
39585;DHT22;25278;53.674;10.014;2022-09-09T16:31:24;28.20;99.90
39585;DHT22;25278;53.674;10.014;2022-09-09T16:33:50;28.90;99.90
39585;DHT22;25278;53.674;10.014;2022-09-09T16:36:19;29.70;99.90
39585;DHT22;25278;53.674;10.014;2022-09-09T16:41:12;30.10;99.90
39585;DHT22;25278;53.674;10.014;2022-09-09T16:43:39;30.70;99.90
39585;DHT22;25278;53.674;10.014;2022-09-09T16:46:18;30.20;99.90
39585;DHT22;25278;53.674;10.014;2022-09-09T16:48:45;29.10;99.90
39585;DHT22;25278;53.674;10.014;2022-09-09T16:51:18;28.30;99.90
39585;DHT22;25278;53.674;10.014;2022-09-09T16:53:44;27.50;99.90
39585;DHT22;25278;53.674;10.014;2022-09-09T16:56:12;26.20;99.90
39585;DHT22;25278;53.674;10.014;2022-09-09T16:58:38;25.00;99.90
39585;DHT22;25278;53.674;10.014;2022-09-09T17:01:04;24.00;99.90
39585;DHT22;25278;53.674;10.014;2022-09-09T17:03:30;23.00;99.90
39585;DHT22;25278;53.674;10.014;2022-09-09T17:05:57;22.40;99.90
39585;DHT22;25278;53.674;10.014;2022-09-09T17:08:26;21.80;99.90
39585;DHT22;25278;53.674;10.014;2022-09-09T17:10:51;21.40;99.90
39585;DHT22;25278;53.674;10.014;2022-09-09T17:13:17;21.00;99.90
39585;DHT22;25278;53.674;10.014;2022-09-09T17:15:45;20.60;99.90
39585;DHT22;25278;53.674;10.014;2022-09-09T17:18:11;20.40;99.90
39585;DHT22;25278;53.674;10.014;2022-09-09T17:20:38;20.10;99.90
39585;DHT22;25278;53.674;10.014;2022-09-09T17:23:08;19.90;99.90
39585;DHT22;25278;53.674;10.014;2022-09-09T17:25:35;19.70;99.90
39585;DHT22;25278;53.674;10.014;2022-09-09T17:28:01;19.40;99.90
39585;DHT22;25278;53.674;10.014;2022-09-09T17:30:33;19.20;99.90
39585;DHT22;25278;53.674;10.014;2022-09-09T17:32:59;19.00;99.90
39585;DHT22;25278;53.674;10.014;2022-09-09T17:35:25;18.80;99.90
39585;DHT22;25278;53.674;10.014;2022-09-09T17:37:53;18.70;99.90
39585;DHT22;25278;53.674;10.014;2022-09-09T17:40:19;18.50;99.90
39585;DHT22;25278;53.674;10.014;2022-09-09T17:42:45;18.40;99.90
39585;DHT22;25278;53.674;10.014;2022-09-09T17:45:11;18.30;99.90
39585;DHT22;25278;53.674;10.014;2022-09-09T17:47:36;18.10;99.90
39585;DHT22;25278;53.674;10.014;2022-09-09T17:50:02;18.00;99.90
39585;DHT22;25278;53.674;10.014;2022-09-09T17:52:28;17.90;99.90
39585;DHT22;25278;53.674;10.014;2022-09-09T17:54:53;17.70;99.90
39585;DHT22;25278;53.674;10.014;2022-09-09T17:57:22;17.50;99.90
39585;DHT22;25278;53.674;10.014;2022-09-09T17:59:47;17.40;99.90
39585;DHT22;25278;53.674;10.014;2022-09-09T18:02:13;17.20;99.90
39585;DHT22;25278;53.674;10.014;2022-09-09T18:04:38;17.10;99.90
39585;DHT22;25278;53.674;10.014;2022-09-09T18:07:04;17.10;99.90
39585;DHT22;25278;53.674;10.014;2022-09-09T18:09:30;17.00;99.90
39585;DHT22;25278;53.674;10.014;2022-09-09T18:11:57;16.80;99.90
39585;DHT22;25278;53.674;10.014;2022-09-09T18:14:26;16.60;99.90
39585;DHT22;25278;53.674;10.014;2022-09-09T18:16:52;16.50;99.90
39585;DHT22;25278;53.674;10.014;2022-09-09T18:19:20;16.40;99.90
39585;DHT22;25278;53.674;10.014;2022-09-09T18:21:47;16.40;99.90
39585;DHT22;25278;53.674;10.014;2022-09-09T18:24:15;16.30;99.90
39585;DHT22;25278;53.674;10.014;2022-09-09T18:26:42;16.30;99.90
39585;DHT22;25278;53.674;10.014;2022-09-09T18:29:09;16.10;99.90
39585;DHT22;25278;53.674;10.014;2022-09-09T18:31:35;16.10;99.90
39585;DHT22;25278;53.674;10.014;2022-09-09T18:34:03;16.00;99.90
39585;DHT22;25278;53.674;10.014;2022-09-09T18:36:31;16.10;99.90
39585;DHT22;25278;53.674;10.014;2022-09-09T18:38:59;16.10;99.90
39585;DHT22;25278;53.674;10.014;2022-09-09T18:41:27;16.00;99.90
39585;DHT22;25278;53.674;10.014;2022-09-09T18:43:56;15.90;99.90
39585;DHT22;25278;53.674;10.014;2022-09-09T18:46:23;15.80;99.90
39585;DHT22;25278;53.674;10.014;2022-09-09T18:48:49;15.70;99.90
39585;DHT22;25278;53.674;10.014;2022-09-09T18:51:17;15.70;99.90
39585;DHT22;25278;53.674;10.014;2022-09-09T18:53:48;15.60;99.90
39585;DHT22;25278;53.674;10.014;2022-09-09T18:56:14;15.50;99.90
39585;DHT22;25278;53.674;10.014;2022-09-09T18:58:39;15.40;99.90
39585;DHT22;25278;53.674;10.014;2022-09-09T19:01:11;15.50;99.90
39585;DHT22;25278;53.674;10.014;2022-09-09T19:03:37;15.60;99.90
39585;DHT22;25278;53.674;10.014;2022-09-09T19:06:06;15.60;99.90
39585;DHT22;25278;53.674;10.014;2022-09-09T19:08:34;15.70;99.90